createdAt,value
2023-03-31T00:00:57.288Z,13.00
2023-03-31T00:04:04.334Z,13.80
2023-03-31T00:07:07.604Z,13.00
2023-03-31T00:10:17.862Z,13.30
2023-03-31T00:13:21.977Z,15.00
2023-03-31T00:16:23.169Z,13.50
2023-03-31T00:19:24.154Z,13.60
2023-03-31T00:22:26.863Z,14.70
2023-03-31T00:25:28.027Z,14.20
2023-03-31T00:28:29.092Z,14.30
2023-03-31T00:31:30.216Z,14.30
2023-03-31T00:34:31.553Z,14.80
2023-03-31T00:37:33.240Z,13.50
2023-03-31T00:40:35.556Z,14.20
2023-03-31T00:43:37.718Z,14.50
2023-03-31T00:46:53.980Z,14.60
2023-03-31T00:49:56.339Z,13.80
2023-03-31T00:53:02.939Z,13.80
2023-03-31T00:56:12.168Z,15.90
2023-03-31T00:59:13.742Z,15.50
2023-03-31T01:02:15.406Z,15.00
2023-03-31T01:05:18.523Z,14.50
2023-03-31T01:08:23.780Z,14.60
2023-03-31T01:11:26.879Z,16.30
2023-03-31T01:14:28.390Z,14.80
2023-03-31T01:17:30.072Z,15.20
2023-03-31T01:21:06.059Z,14.50
2023-03-31T01:24:23.469Z,12.70
2023-03-31T01:27:43.168Z,12.20
2023-03-31T01:31:14.019Z,11.30
2023-03-31T01:34:56.629Z,12.80
2023-03-31T01:38:32.056Z,13.10
2023-03-31T01:41:43.770Z,15.30
2023-03-31T01:44:54.748Z,14.00
2023-03-31T01:47:59.098Z,16.70
2023-03-31T01:51:06.876Z,14.80
2023-03-31T01:54:17.230Z,14.10
2023-03-31T01:57:27.372Z,13.70
2023-03-31T02:00:33.822Z,15.30
2023-03-31T02:03:39.708Z,14.00
2023-03-31T02:06:49.668Z,13.60
2023-03-31T02:09:57.392Z,15.50
2023-03-31T02:12:59.788Z,14.50
2023-03-31T02:16:06.045Z,14.00
2023-03-31T02:19:18.931Z,15.00
2023-03-31T02:22:20.893Z,13.70
2023-03-31T02:25:24.920Z,15.20
2023-03-31T02:28:27.872Z,14.40
2023-03-31T02:31:52.432Z,16.20
2023-03-31T02:35:03.353Z,15.80
2023-03-31T02:38:11.061Z,15.90
2023-03-31T02:41:22.362Z,15.00
2023-03-31T02:44:43.636Z,15.20
2023-03-31T02:47:45.007Z,14.90
2023-03-31T02:51:08.556Z,15.00
2023-03-31T02:54:45.929Z,15.40
2023-03-31T02:58:34.921Z,14.30
2023-03-31T03:02:03.960Z,14.60
2023-03-31T03:05:18.146Z,16.80
2023-03-31T03:08:32.914Z,15.30
2023-03-31T03:11:55.132Z,17.50
2023-03-31T03:15:32.500Z,15.20
2023-03-31T03:18:42.573Z,15.00
2023-03-31T03:21:52.595Z,15.20
2023-03-31T03:25:14.099Z,17.10
2023-03-31T03:28:15.186Z,15.50
2023-03-31T03:31:16.589Z,15.40
2023-03-31T03:34:19.438Z,15.80
2023-03-31T03:37:30.516Z,15.40
2023-03-31T03:40:31.701Z,15.60
2023-03-31T03:43:32.827Z,17.10
2023-03-31T03:46:34.114Z,18.00
2023-03-31T03:49:35.242Z,17.20
2023-03-31T03:52:36.680Z,17.70
2023-03-31T03:55:37.710Z,18.40
2023-03-31T03:58:46.173Z,15.30
2023-03-31T04:04:35.019Z,15.10
2023-03-31T04:07:36.887Z,15.80
2023-03-31T04:11:00.669Z,15.40
2023-03-31T04:14:02.536Z,16.20
2023-03-31T04:17:06.870Z,16.20
2023-03-31T04:20:10.234Z,17.10
2023-03-31T04:23:21.135Z,18.70
2023-03-31T04:26:26.701Z,16.90
2023-03-31T04:29:28.628Z,17.50
2023-03-31T04:32:33.170Z,18.10
2023-03-31T04:35:58.321Z,16.80
2023-03-31T04:39:01.248Z,18.00
2023-03-31T04:42:03.512Z,17.90
2023-03-31T04:45:18.221Z,16.60
2023-03-31T04:48:23.257Z,18.20
2023-03-31T04:51:55.961Z,16.30
2023-03-31T04:54:58.013Z,17.70
2023-03-31T04:58:00.063Z,15.10
2023-03-31T05:01:01.780Z,16.10
2023-03-31T05:04:04.672Z,17.50
2023-03-31T05:07:17.423Z,19.00
2023-03-31T05:10:22.562Z,18.60
2023-03-31T05:13:24.280Z,20.20
2023-03-31T05:19:36.628Z,18.10
2023-03-31T05:22:43.837Z,17.90
2023-03-31T05:25:47.803Z,19.50
2023-03-31T05:29:09.816Z,18.10
2023-03-31T05:32:31.811Z,19.10
2023-03-31T05:35:45.441Z,18.20
2023-03-31T05:38:50.434Z,17.00
2023-03-31T05:41:52.354Z,17.50
2023-03-31T05:45:00.039Z,19.10
2023-03-31T05:48:02.270Z,19.50
2023-03-31T05:51:06.591Z,19.50
2023-03-31T05:54:19.649Z,19.30
2023-03-31T05:57:24.532Z,19.20
2023-03-31T06:00:36.035Z,18.30
2023-03-31T06:03:43.895Z,19.10
2023-03-31T06:06:50.483Z,19.20
2023-03-31T06:09:52.784Z,19.90
2023-03-31T06:12:56.948Z,19.30
2023-03-31T06:16:00.903Z,18.30
2023-03-31T06:19:10.078Z,18.60
2023-03-31T06:22:12.197Z,17.70
2023-03-31T06:25:48.117Z,19.00
2023-03-31T06:29:07.224Z,17.30
2023-03-31T06:32:09.220Z,18.40
2023-03-31T06:35:24.621Z,18.40
2023-03-31T06:38:30.057Z,18.60
2023-03-31T06:42:12.391Z,19.80
2023-03-31T06:45:15.823Z,20.40
2023-03-31T06:48:17.537Z,18.20
2023-03-31T06:51:19.409Z,17.70
2023-03-31T06:54:26.556Z,19.50
2023-03-31T06:57:39.753Z,19.10
2023-03-31T07:00:53.752Z,19.10
2023-03-31T07:03:55.552Z,20.20
2023-03-31T07:07:00.790Z,17.80
2023-03-31T07:10:02.726Z,17.30
2023-03-31T07:13:05.721Z,17.70
2023-03-31T07:16:18.168Z,19.00
2023-03-31T07:19:20.007Z,18.10
2023-03-31T07:25:35.340Z,18.00
2023-03-31T07:28:45.720Z,17.90
2023-03-31T07:32:07.864Z,17.80
2023-03-31T07:35:12.306Z,18.10
2023-03-31T07:38:14.161Z,20.20
2023-03-31T07:41:18.618Z,18.90
2023-03-31T07:44:21.962Z,18.80
2023-03-31T07:47:26.784Z,20.60
2023-03-31T07:50:28.748Z,25.80
2023-03-31T07:53:31.670Z,20.60
2023-03-31T07:56:34.102Z,19.50
2023-03-31T07:59:46.297Z,20.80
2023-03-31T08:02:48.020Z,21.10
2023-03-31T08:05:53.790Z,20.40
2023-03-31T08:08:56.179Z,22.20
2023-03-31T08:11:57.889Z,21.70
2023-03-31T08:14:59.631Z,21.10
2023-03-31T08:18:04.680Z,19.90
2023-03-31T08:21:07.767Z,21.00
2023-03-31T08:24:31.197Z,19.20
2023-03-31T08:27:34.074Z,21.10
2023-03-31T08:30:38.054Z,21.90
2023-03-31T08:33:39.852Z,19.00
2023-03-31T08:36:41.583Z,18.70
2023-03-31T08:39:43.481Z,20.60
2023-03-31T08:42:49.841Z,19.70
2023-03-31T08:45:56.087Z,18.80
2023-03-31T08:49:18.736Z,19.50
2023-03-31T08:52:36.729Z,16.40
2023-03-31T08:55:51.846Z,15.40
2023-03-31T08:58:54.046Z,14.90
2023-03-31T09:02:31.432Z,17.40
2023-03-31T09:05:59.614Z,15.60
2023-03-31T09:09:03.878Z,16.30
2023-03-31T09:12:11.562Z,16.40
2023-03-31T09:15:23.147Z,17.20
2023-03-31T09:18:46.973Z,18.00
2023-03-31T09:21:51.850Z,17.20
2023-03-31T09:25:27.323Z,19.00
2023-03-31T09:28:40.485Z,16.30
2023-03-31T09:31:44.618Z,17.70
2023-03-31T09:35:01.265Z,17.30
2023-03-31T09:38:13.319Z,16.80
2023-03-31T09:41:16.778Z,16.00
2023-03-31T09:44:39.220Z,16.40
2023-03-31T09:47:52.167Z,16.50
2023-03-31T09:51:04.335Z,17.20
2023-03-31T09:54:16.317Z,16.50
2023-03-31T09:57:29.903Z,16.60
2023-03-31T10:00:34.046Z,17.00
2023-03-31T10:03:54.995Z,18.60
2023-03-31T10:06:57.494Z,19.30
2023-03-31T10:09:59.517Z,17.70
2023-03-31T10:13:09.935Z,17.80
2023-03-31T10:16:30.071Z,18.00
2023-03-31T10:19:37.899Z,17.20
2023-03-31T10:22:45.629Z,17.50
2023-03-31T10:25:48.023Z,18.80
2023-03-31T10:28:52.963Z,19.30
2023-03-31T10:31:55.023Z,18.00
2023-03-31T10:34:58.357Z,19.10
2023-03-31T10:38:05.775Z,18.50
2023-03-31T10:41:08.325Z,18.40
2023-03-31T10:44:37.098Z,18.80
2023-03-31T10:47:39.997Z,19.10
2023-03-31T10:50:43.878Z,18.80
2023-03-31T10:53:48.106Z,20.40
2023-03-31T10:56:56.078Z,19.70
2023-03-31T11:00:12.897Z,19.50
2023-03-31T11:03:20.615Z,19.30
2023-03-31T11:07:10.425Z,20.10
2023-03-31T11:10:39.542Z,17.60
2023-03-31T11:14:12.737Z,17.80
2023-03-31T11:17:28.310Z,16.20
2023-03-31T11:21:26.994Z,16.30
2023-03-31T11:24:49.151Z,16.10
2023-03-31T11:28:01.788Z,17.70
2023-03-31T11:31:28.854Z,16.70
2023-03-31T11:35:14.525Z,17.60
2023-03-31T11:38:51.238Z,14.60
2023-03-31T11:41:56.407Z,17.20
2023-03-31T11:45:03.519Z,14.40
2023-03-31T11:48:24.469Z,12.00
2023-03-31T11:51:29.925Z,10.90
2023-03-31T11:54:52.204Z,10.10
2023-03-31T11:57:59.427Z,10.30
2023-03-31T12:01:29.186Z,10.30
2023-03-31T12:04:37.640Z,10.60
2023-03-31T12:08:00.849Z,9.50
2023-03-31T12:11:11.039Z,10.80
2023-03-31T12:14:38.096Z,11.00
2023-03-31T12:17:42.263Z,10.20
2023-03-31T12:20:52.317Z,11.10
2023-03-31T12:23:53.973Z,10.30
2023-03-31T12:27:07.938Z,10.20
2023-03-31T12:30:21.360Z,10.20
2023-03-31T12:33:33.496Z,9.40
2023-03-31T12:36:57.019Z,10.50
2023-03-31T12:40:21.822Z,12.10
2023-03-31T12:43:45.385Z,12.20
2023-03-31T12:47:08.939Z,12.80
2023-03-31T12:50:35.329Z,12.40
2023-03-31T12:53:55.160Z,12.70
2023-03-31T12:57:08.983Z,12.60
2023-03-31T13:00:30.287Z,12.80
2023-03-31T13:04:12.569Z,12.60
2023-03-31T13:07:41.411Z,13.00
2023-03-31T13:10:59.846Z,11.90
2023-03-31T13:14:14.555Z,12.70
2023-03-31T13:17:48.246Z,11.90
2023-03-31T13:21:00.646Z,12.60
2023-03-31T13:24:03.242Z,12.50
2023-03-31T13:27:39.669Z,12.50
2023-03-31T13:30:43.998Z,13.00
2023-03-31T13:33:57.390Z,12.50
2023-03-31T13:37:16.763Z,12.80
2023-03-31T13:40:56.085Z,12.30
2023-03-31T13:44:00.772Z,12.90
2023-03-31T13:47:20.918Z,11.30
2023-03-31T13:50:42.633Z,13.50
2023-03-31T13:54:19.856Z,14.40
2023-03-31T13:57:29.225Z,11.40
2023-03-31T14:01:19.040Z,13.40
2023-03-31T14:04:30.121Z,12.40
2023-03-31T14:07:37.402Z,13.70
2023-03-31T14:10:49.842Z,13.70
2023-03-31T14:14:09.728Z,13.40
2023-03-31T14:17:12.189Z,13.80
2023-03-31T14:20:38.796Z,12.80
2023-03-31T14:23:55.975Z,13.30
2023-03-31T14:27:27.160Z,13.40
2023-03-31T14:30:38.642Z,9.90
2023-03-31T14:34:09.699Z,10.50
2023-03-31T14:37:13.926Z,11.80
2023-03-31T14:40:16.987Z,8.60
2023-03-31T14:43:25.750Z,8.60
2023-03-31T14:46:32.837Z,8.50
2023-03-31T14:49:48.654Z,8.70
2023-03-31T14:52:52.518Z,9.50
2023-03-31T14:56:05.180Z,8.60
2023-03-31T14:59:07.952Z,10.30
2023-03-31T15:02:16.940Z,8.70
2023-03-31T15:05:32.991Z,7.70
2023-03-31T15:08:37.543Z,7.90
2023-03-31T15:11:39.551Z,7.90
2023-03-31T15:14:52.213Z,8.50
2023-03-31T15:17:54.909Z,11.50
2023-03-31T15:20:56.964Z,11.20
2023-03-31T15:23:59.276Z,11.10
2023-03-31T15:27:05.521Z,10.80
2023-03-31T15:30:09.717Z,12.50
2023-03-31T15:33:27.306Z,12.00
2023-03-31T15:36:51.678Z,11.30
2023-03-31T15:43:20.182Z,10.90
2023-03-31T15:46:51.249Z,11.40
2023-03-31T15:50:14.175Z,11.10
2023-03-31T15:53:52.411Z,11.90
2023-03-31T15:57:00.271Z,11.80
2023-03-31T16:00:27.620Z,10.50
2023-03-31T16:03:40.643Z,12.20
2023-03-31T16:06:48.132Z,11.10
2023-03-31T16:10:16.625Z,11.20
2023-03-31T16:13:39.324Z,12.30
2023-03-31T16:19:53.111Z,10.20
2023-03-31T16:22:59.423Z,12.00
2023-03-31T16:26:01.712Z,11.40
2023-03-31T16:29:04.210Z,12.60
2023-03-31T16:32:21.025Z,13.00
2023-03-31T16:35:22.879Z,12.60
2023-03-31T16:38:45.138Z,12.20
2023-03-31T16:41:49.480Z,12.40
2023-03-31T16:45:09.617Z,12.70
2023-03-31T16:48:16.673Z,12.60
2023-03-31T16:51:42.650Z,11.80
2023-03-31T16:54:44.784Z,13.20
2023-03-31T16:57:47.104Z,12.90
2023-03-31T17:00:51.464Z,12.40
2023-03-31T17:04:03.429Z,13.00
2023-03-31T17:07:05.255Z,12.10
2023-03-31T17:10:08.148Z,11.90
2023-03-31T17:13:10.566Z,15.70
2023-03-31T17:16:22.124Z,13.60
2023-03-31T17:19:33.617Z,11.80
2023-03-31T17:22:35.794Z,12.00
2023-03-31T17:25:38.351Z,13.10
2023-03-31T17:28:42.885Z,13.30
2023-03-31T17:31:45.092Z,12.70
2023-03-31T17:34:50.570Z,13.70
2023-03-31T17:37:54.001Z,13.10
2023-03-31T17:40:55.795Z,13.00
2023-03-31T17:43:58.086Z,12.50
2023-03-31T17:47:02.241Z,12.60
2023-03-31T17:50:05.049Z,12.50
2023-03-31T17:53:09.196Z,16.10
2023-03-31T17:56:11.820Z,17.50
2023-03-31T17:59:13.563Z,16.00
2023-03-31T18:02:25.705Z,14.50
2023-03-31T18:05:27.635Z,14.30
2023-03-31T18:08:30.075Z,14.30
2023-03-31T18:11:34.900Z,12.90
2023-03-31T18:14:57.458Z,13.70
2023-03-31T18:17:59.984Z,13.40
2023-03-31T18:21:08.639Z,12.70
2023-03-31T18:24:10.539Z,13.40
2023-03-31T18:27:12.591Z,12.70
2023-03-31T18:30:17.059Z,13.20
2023-03-31T18:33:22.046Z,12.90
2023-03-31T18:36:32.509Z,11.80
2023-03-31T18:39:34.679Z,12.10
2023-03-31T18:42:44.213Z,12.30
2023-03-31T18:46:01.360Z,12.40
2023-03-31T18:49:23.633Z,11.80
2023-03-31T18:52:38.675Z,10.90
2023-03-31T18:55:53.213Z,11.30
2023-03-31T18:59:05.257Z,12.40
2023-03-31T19:02:36.874Z,12.70
2023-03-31T19:05:48.065Z,12.30
2023-03-31T19:09:00.944Z,15.40
2023-03-31T19:12:12.017Z,20.90
2023-03-31T19:15:13.897Z,16.70
2023-03-31T19:18:26.363Z,14.40
2023-03-31T19:21:33.183Z,12.50
2023-03-31T19:24:45.139Z,12.70
2023-03-31T19:28:10.017Z,11.70
2023-03-31T19:31:18.035Z,11.70
2023-03-31T19:34:32.541Z,11.70
2023-03-31T19:38:03.926Z,12.40
2023-03-31T19:41:58.788Z,11.70
2023-03-31T19:45:04.291Z,14.00
2023-03-31T19:51:20.494Z,14.30
2023-03-31T19:54:24.997Z,12.70
2023-03-31T19:57:42.956Z,14.30
2023-03-31T20:00:48.169Z,14.00
2023-03-31T20:03:53.240Z,13.90
2023-03-31T20:07:04.736Z,14.60
2023-03-31T20:10:40.566Z,14.70
2023-03-31T20:14:03.101Z,16.30
2023-03-31T20:17:56.031Z,15.30
2023-03-31T20:21:14.779Z,15.10
2023-03-31T20:24:27.465Z,15.50
2023-03-31T20:27:48.419Z,15.60
2023-03-31T20:31:39.546Z,15.50
2023-03-31T20:35:14.269Z,14.70
2023-03-31T20:38:16.522Z,15.40
2023-03-31T20:41:31.914Z,14.60
2023-03-31T20:44:33.895Z,13.90
2023-03-31T20:47:56.149Z,14.40
2023-03-31T20:51:22.778Z,13.70
2023-03-31T20:58:50.580Z,13.60
2023-03-31T21:02:35.507Z,13.80
2023-03-31T21:06:24.012Z,14.10
2023-03-31T21:09:26.308Z,13.40
2023-03-31T21:12:28.937Z,14.60
2023-03-31T21:15:54.524Z,14.10
2023-03-31T21:19:37.031Z,14.50
2023-03-31T21:23:00.782Z,14.60
2023-03-31T21:26:23.244Z,15.30
2023-03-31T21:29:25.116Z,14.30
2023-03-31T21:32:30.300Z,14.10
2023-03-31T21:35:52.777Z,14.60
2023-03-31T21:38:55.783Z,14.80
2023-03-31T21:41:57.520Z,15.00
2023-03-31T21:45:19.527Z,15.40
2023-03-31T21:48:31.865Z,14.70
2023-03-31T21:51:43.981Z,14.30
2023-03-31T21:54:46.049Z,13.80
2023-03-31T21:57:50.845Z,14.90
2023-03-31T22:01:26.752Z,12.70
2023-03-31T22:04:30.693Z,12.70
2023-03-31T22:07:33.799Z,12.30
2023-03-31T22:11:08.376Z,14.10
2023-03-31T22:14:30.535Z,14.10
2023-03-31T22:17:45.362Z,13.40
2023-03-31T22:21:26.274Z,12.80
2023-03-31T22:24:57.515Z,12.60
2023-03-31T22:28:00.164Z,12.50
2023-03-31T22:31:02.124Z,12.60
2023-03-31T22:34:06.600Z,13.60
2023-03-31T22:37:20.632Z,12.70
2023-03-31T22:40:46.069Z,13.40
2023-03-31T22:44:08.438Z,12.80
2023-03-31T22:47:18.076Z,14.00
2023-03-31T22:50:32.853Z,12.90
2023-03-31T22:53:58.258Z,13.40
2023-03-31T22:57:32.286Z,13.30
2023-03-31T23:00:42.205Z,16.00
2023-03-31T23:04:08.909Z,15.80
2023-03-31T23:07:50.629Z,13.80
2023-03-31T23:11:33.136Z,14.20
2023-03-31T23:15:45.006Z,15.10
2023-03-31T23:19:26.039Z,13.60
2023-03-31T23:22:56.640Z,13.30
2023-03-31T23:26:15.697Z,13.10
2023-03-31T23:29:46.676Z,13.30
2023-03-31T23:33:28.942Z,13.60
2023-03-31T23:37:03.208Z,12.70
2023-03-31T23:40:57.357Z,12.40
2023-03-31T23:44:59.849Z,11.50
2023-03-31T23:49:05.374Z,12.40
2023-03-31T23:52:59.435Z,11.40
2023-03-31T23:56:47.060Z,12.50
